Time;durP1;ratioP1;P1;durP2;ratioP2;P2;SDS_P1;SDS_P2;PMS_P1;PMS_P2;Temp;Humidity;BMP_temperature;BMP_pressure;BME280_temperature;BME280_humidity;BME280_pressure;Samples;Min_cycle;Max_cycle;Signal;HPM_P1;HPM_P2
2023/03/11 00:00:42;;;;;;;8.48;1.45;;;0.80;99.90;;;;;;5092540;28;20100;-75
2023/03/11 00:03:10;;;;;;;9.32;1.55;;;0.70;99.90;;;;;;5093680;28;20044;-75
2023/03/11 00:05:38;;;;;;;9.07;1.70;;;0.70;99.90;;;;;;5092688;28;20561;-75
2023/03/11 00:08:06;;;;;;;8.55;1.60;;;0.70;99.90;;;;;;5093790;28;20052;-75
2023/03/11 00:10:39;;;;;;;7.43;1.25;;;0.70;99.90;;;;;;5075657;28;20395;-75
2023/03/11 00:13:06;;;;;;;10.43;1.88;;;0.70;99.90;;;;;;5093690;28;20109;-75
2023/03/11 00:15:32;;;;;;;9.23;1.50;;;0.70;99.90;;;;;;5092594;28;20059;-75
2023/03/11 00:17:58;;;;;;;8.85;1.83;;;0.70;99.90;;;;;;5092565;28;20055;-75
2023/03/11 00:20:27;;;;;;;10.60;1.90;;;0.70;99.90;;;;;;5093408;28;20074;-75
2023/03/11 00:22:54;;;;;;;12.25;1.80;;;0.70;99.90;;;;;;5092602;28;20044;-75
2023/03/11 00:25:22;;;;;;;11.38;2.30;;;0.70;99.90;;;;;;5094635;28;20044;-75
2023/03/11 00:27:48;;;;;;;7.80;1.70;;;0.70;99.90;;;;;;5093480;28;20040;-75
2023/03/11 00:30:16;;;;;;;9.70;1.50;;;0.80;99.90;;;;;;5093992;28;20109;-75
2023/03/11 00:32:42;;;;;;;9.10;1.75;;;0.70;99.90;;;;;;5093437;28;20048;-75
2023/03/11 00:35:15;;;;;;;10.20;1.38;;;0.60;99.90;;;;;;5093352;28;20490;-75
2023/03/11 00:37:42;;;;;;;10.48;1.60;;;0.60;99.90;;;;;;5097568;28;20054;-75
2023/03/11 00:40:17;;;;;;;6.18;1.40;;;0.70;99.90;;;;;;5097467;28;20051;-74
2023/03/11 00:42:42;;;;;;;9.90;1.63;;;0.70;99.90;;;;;;5097489;28;20043;-75
2023/03/11 00:45:09;;;;;;;7.67;1.60;;;0.80;99.90;;;;;;5095873;28;20131;-75
2023/03/11 00:47:34;;;;;;;7.45;1.25;;;0.70;99.90;;;;;;5097839;28;20449;-74
2023/03/11 00:50:00;;;;;;;7.13;1.40;;;0.80;99.90;;;;;;5095785;28;20060;-74
2023/03/11 00:52:27;;;;;;;10.57;1.70;;;0.80;99.90;;;;;;5097719;28;20056;-74
2023/03/11 00:54:54;;;;;;;7.78;1.40;;;0.90;99.90;;;;;;5097202;28;20044;-74
2023/03/11 00:57:19;;;;;;;9.50;1.65;;;0.80;99.90;;;;;;5097129;28;20084;-74
2023/03/11 00:59:45;;;;;;;8.67;1.37;;;0.80;99.90;;;;;;5097253;28;20129;-74
2023/03/11 01:02:11;;;;;;;14.67;2.13;;;0.90;99.90;;;;;;5097020;28;20387;-74
2023/03/11 01:04:37;;;;;;;10.43;2.00;;;0.80;99.90;;;;;;5096973;28;20044;-74
2023/03/11 01:07:03;;;;;;;6.30;1.13;;;0.90;99.90;;;;;;5095957;28;20468;-74
2023/03/11 01:09:28;;;;;;;5.85;1.50;;;0.80;99.90;;;;;;5096917;28;20083;-74
2023/03/11 01:11:54;;;;;;;7.73;1.30;;;0.70;99.90;;;;;;5097643;28;20091;-74
2023/03/11 01:14:20;;;;;;;6.67;1.20;;;0.80;99.90;;;;;;5096844;28;20490;-74
2023/03/11 01:16:46;;;;;;;4.87;1.20;;;0.80;99.90;;;;;;5096746;28;20078;-73
2023/03/11 01:19:12;;;;;;;6.37;1.30;;;0.80;99.90;;;;;;5096752;28;20048;-73
2023/03/11 01:21:38;;;;;;;7.25;1.10;;;0.80;99.90;;;;;;5096601;28;20043;-74
2023/03/11 01:24:04;;;;;;;9.48;1.55;;;0.70;99.90;;;;;;5096653;28;20055;-73
2023/03/11 01:26:30;;;;;;;8.43;1.40;;;0.70;99.90;;;;;;5096300;28;20051;-73
2023/03/11 01:28:55;;;;;;;5.43;1.30;;;0.80;99.90;;;;;;5095414;28;20055;-73
2023/03/11 01:31:21;;;;;;;7.43;1.40;;;0.80;99.90;;;;;;5096448;28;20130;-73
2023/03/11 01:33:47;;;;;;;3.97;1.10;;;0.90;99.90;;;;;;5095753;28;20040;-74
2023/03/11 01:36:12;;;;;;;5.93;1.07;;;0.80;99.90;;;;;;5096459;28;20044;-74
2023/03/11 01:38:38;;;;;;;5.60;1.20;;;0.80;99.90;;;;;;5095997;28;20040;-74
2023/03/11 01:41:05;;;;;;;8.48;1.65;;;0.80;99.90;;;;;;5095973;28;20093;-74
2023/03/11 01:43:43;;;;;;;8.60;1.20;;;0.80;99.90;;;;;;5095088;28;20054;-74
2023/03/11 01:46:23;;;;;;;7.40;1.88;;;0.80;99.90;;;;;;5097237;28;20054;-74
2023/03/11 01:48:53;;;;;;;6.80;1.25;;;0.90;99.90;;;;;;5095769;28;20067;-74
2023/03/11 01:51:27;;;;;;;6.95;1.30;;;0.90;99.90;;;;;;5096004;28;20349;-74
2023/03/11 01:53:54;;;;;;;5.72;1.20;;;0.80;99.90;;;;;;5096518;28;20117;-74
2023/03/11 01:56:21;;;;;;;7.30;1.20;;;0.80;99.90;;;;;;5095953;28;20130;-74
2023/03/11 01:58:51;;;;;;;8.85;1.50;;;0.80;99.90;;;;;;5095901;28;20044;-74
2023/03/11 02:01:18;;;;;;;5.88;1.15;;;0.80;99.90;;;;;;5095884;28;20387;-74
2023/03/11 02:03:44;;;;;;;6.13;2.17;;;0.70;99.90;;;;;;5095218;28;20055;-74
2023/03/11 02:06:16;;;;;;;6.47;1.27;;;0.70;99.90;;;;;;5095883;28;20040;-74
2023/03/11 02:08:43;;;;;;;4.55;1.50;;;0.50;99.90;;;;;;5095097;28;20545;-74
2023/03/11 02:11:14;;;;;;;12.48;1.30;;;0.60;99.90;;;;;;5096508;28;20435;-74
2023/03/11 02:13:41;;;;;;;4.10;0.98;;;0.60;99.90;;;;;;5094523;28;20055;-74
2023/03/11 02:16:08;;;;;;;10.05;1.02;;;0.50;99.90;;;;;;5095625;28;20128;-74
2023/03/11 02:18:34;;;;;;;9.80;1.80;;;0.50;99.90;;;;;;5095905;28;20498;-74
2023/03/11 02:21:22;;;;;;;11.02;2.38;;;0.40;99.90;;;;;;5095523;28;20044;-74
2023/03/11 02:23:52;;;;;;;5.25;1.20;;;0.50;99.90;;;;;;5096288;28;20044;-74
2023/03/11 02:26:41;;;;;;;7.13;1.10;;;0.40;99.90;;;;;;5095395;28;20085;-74
2023/03/11 02:29:09;;;;;;;6.22;1.10;;;0.40;99.90;;;;;;5095355;28;20097;-74
2023/03/11 02:31:37;;;;;;;7.28;1.17;;;0.30;99.90;;;;;;5095375;28;20059;-74
2023/03/11 02:34:05;;;;;;;6.15;1.10;;;0.40;99.90;;;;;;5094987;28;20487;-74
2023/03/11 02:36:34;;;;;;;5.32;1.20;;;0.40;99.90;;;;;;5095204;28;20101;-74
2023/03/11 02:39:00;;;;;;;6.88;1.75;;;0.20;99.90;;;;;;5095139;28;20044;-74
2023/03/11 02:41:27;;;;;;;6.03;1.03;;;0.20;99.90;;;;;;5094969;28;20101;-74
2023/03/11 02:43:53;;;;;;;5.93;1.10;;;0.20;99.90;;;;;;5095075;28;20052;-74
2023/03/11 02:46:19;;;;;;;4.97;1.20;;;0.20;99.90;;;;;;5094991;28;20051;-73
2023/03/11 02:48:46;;;;;;;4.87;1.17;;;0.10;99.90;;;;;;5094925;28;20044;-74
2023/03/11 02:51:12;;;;;;;7.13;1.30;;;0.10;99.90;;;;;;5095520;28;20066;-73
2023/03/11 02:53:45;;;;;;;5.93;1.00;;;0.10;99.90;;;;;;5094897;28;20074;-73
2023/03/11 02:56:10;;;;;;;8.18;1.20;;;0.20;99.90;;;;;;5095679;28;20098;-73
2023/03/11 02:58:36;;;;;;;8.00;1.40;;;0.20;99.90;;;;;;5093763;28;20048;-73
2023/03/11 03:01:02;;;;;;;8.37;1.40;;;0.10;99.90;;;;;;5095424;28;20132;-73
2023/03/11 03:03:28;;;;;;;4.83;1.20;;;0.20;99.90;;;;;;5094632;28;20480;-73
2023/03/11 03:05:53;;;;;;;5.90;1.13;;;0.30;99.90;;;;;;5093660;28;20060;-73
2023/03/11 03:08:19;;;;;;;4.87;1.00;;;0.30;99.90;;;;;;5093916;28;20091;-73
2023/03/11 03:10:45;;;;;;;5.93;1.20;;;0.30;99.90;;;;;;5094517;28;20134;-73
2023/03/11 03:13:11;;;;;;;8.67;1.77;;;0.20;99.90;;;;;;5095327;28;20052;-73
2023/03/11 03:15:36;;;;;;;5.60;1.20;;;0.30;99.90;;;;;;5094464;28;20560;-73
2023/03/11 03:18:02;;;;;;;6.87;1.37;;;0.30;99.90;;;;;;5094364;28;20126;-73
2023/03/11 03:20:28;;;;;;;8.83;1.43;;;0.30;99.90;;;;;;5094768;28;20452;-72
2023/03/11 03:22:54;;;;;;;5.27;1.20;;;0.10;99.90;;;;;;5094333;28;20094;-73
2023/03/11 03:25:19;;;;;;;6.90;1.20;;;0.20;99.90;;;;;;5094301;28;20095;-72
2023/03/11 03:27:45;;;;;;;4.93;2.03;;;0.10;99.90;;;;;;5094780;28;20048;-74
2023/03/11 03:30:11;;;;;;;7.50;1.20;;;0.20;99.90;;;;;;5094205;28;20036;-73
2023/03/11 03:32:37;;;;;;;6.88;1.33;;;0.10;99.90;;;;;;5093461;28;20047;-73
2023/03/11 03:35:04;;;;;;;7.90;1.15;;;0.00;99.90;;;;;;5093043;28;20044;-73
2023/03/11 03:37:33;;;;;;;6.35;1.20;;;0.00;99.90;;;;;;5094367;28;20097;-71
2023/03/11 03:39:59;;;;;;;5.78;1.00;;;0.10;99.90;;;;;;5093700;28;20471;-72
2023/03/11 03:42:24;;;;;;;9.17;1.30;;;0.00;99.90;;;;;;5094563;28;20067;-72
2023/03/11 03:44:51;;;;;;;6.33;1.33;;;0.00;99.90;;;;;;5094459;28;20105;-73
2023/03/11 03:47:18;;;;;;;9.77;1.20;;;0.00;99.90;;;;;;5093898;28;20055;-72
2023/03/11 03:49:44;;;;;;;6.95;1.10;;;-0.10;99.90;;;;;;5093969;28;20060;-72
2023/03/11 03:52:09;;;;;;;6.20;1.20;;;-0.10;99.90;;;;;;5093839;28;20036;-72
2023/03/11 03:54:36;;;;;;;5.30;1.00;;;-0.10;99.90;;;;;;5093890;28;20054;-72
2023/03/11 03:57:02;;;;;;;7.25;1.88;;;-0.20;99.90;;;;;;5093772;28;20052;-72
2023/03/11 03:59:28;;;;;;;4.93;1.20;;;-0.20;99.90;;;;;;5094235;28;20044;-72
2023/03/11 04:01:54;;;;;;;7.90;1.37;;;-0.20;99.90;;;;;;5093690;28;20108;-73
2023/03/11 04:04:19;;;;;;;4.50;1.00;;;-0.30;99.90;;;;;;5094462;28;20051;-73
2023/03/11 04:06:45;;;;;;;5.40;1.00;;;-0.40;99.90;;;;;;5093344;28;20040;-72
2023/03/11 04:09:11;;;;;;;6.20;1.17;;;-0.40;99.90;;;;;;5092475;28;20086;-72
2023/03/11 04:11:37;;;;;;;2.80;1.00;;;-0.50;99.90;;;;;;5093231;28;20040;-73
2023/03/11 04:14:04;;;;;;;6.30;1.23;;;-0.50;99.90;;;;;;5092408;28;20047;-73
2023/03/11 04:16:30;;;;;;;8.10;1.20;;;-0.40;99.90;;;;;;5092424;28;20055;-73
2023/03/11 04:18:55;;;;;;;9.85;1.20;;;-0.40;99.90;;;;;;5093579;28;20407;-73
2023/03/11 04:21:21;;;;;;;8.10;1.10;;;-0.40;99.90;;;;;;5093423;28;20040;-73
2023/03/11 04:23:47;;;;;;;8.07;1.40;;;-0.40;99.90;;;;;;5093778;28;20044;-72
2023/03/11 04:26:13;;;;;;;4.87;1.00;;;-0.40;99.90;;;;;;5093457;28;20109;-73
2023/03/11 04:28:38;;;;;;;6.33;1.47;;;-0.40;99.90;;;;;;5093464;28;20044;-73
2023/03/11 04:31:04;;;;;;;6.53;1.40;;;-0.30;99.90;;;;;;5093947;28;20040;-73
2023/03/11 04:33:30;;;;;;;8.07;1.17;;;-0.30;99.90;;;;;;5093378;28;20044;-73
2023/03/11 04:35:56;;;;;;;4.82;1.00;;;-0.20;99.90;;;;;;5093339;28;20056;-73
2023/03/11 04:38:22;;;;;;;8.60;1.73;;;-0.20;99.90;;;;;;5093356;28;20096;-73
2023/03/11 04:40:48;;;;;;;9.13;1.63;;;-0.10;99.90;;;;;;5093312;28;20052;-73
2023/03/11 04:43:13;;;;;;;4.93;1.40;;;-0.10;99.90;;;;;;5093332;28;20051;-73
2023/03/11 04:45:41;;;;;;;3.83;1.23;;;-0.10;99.90;;;;;;5093355;28;20048;-72
2023/03/11 04:48:07;;;;;;;9.70;1.30;;;-0.10;99.90;;;;;;5093514;28;20058;-73
2023/03/11 04:50:33;;;;;;;5.63;1.20;;;-0.10;99.90;;;;;;5093669;28;20063;-72
2023/03/11 04:52:59;;;;;;;10.05;2.40;;;-0.20;99.90;;;;;;5093469;28;20043;-73
2023/03/11 04:55:25;;;;;;;4.53;1.50;;;-0.20;99.90;;;;;;5093761;28;20353;-72
2023/03/11 04:57:51;;;;;;;3.67;1.07;;;-0.20;99.90;;;;;;5091680;28;20044;-72
2023/03/11 05:00:21;;;;;;;6.40;1.30;;;-0.20;99.90;;;;;;5093099;28;20066;-72
2023/03/11 05:02:47;;;;;;;7.45;1.40;;;-0.30;99.90;;;;;;5093759;28;20101;-72
2023/03/11 05:05:13;;;;;;;6.73;1.30;;;-0.30;99.90;;;;;;5092757;28;20052;-72
2023/03/11 05:07:38;;;;;;;9.80;1.93;;;-0.40;99.90;;;;;;5093158;28;20051;-72
2023/03/11 05:10:05;;;;;;;5.83;1.33;;;-0.40;99.90;;;;;;5093052;28;20056;-72
2023/03/11 05:12:31;;;;;;;5.95;2.17;;;-0.40;99.90;;;;;;5091918;28;20040;-72
2023/03/11 05:14:57;;;;;;;6.13;1.45;;;-0.40;99.90;;;;;;5093041;28;20052;-75
2023/03/11 05:17:23;;;;;;;9.00;1.30;;;-0.50;99.90;;;;;;5091893;28;20093;-72
2023/03/11 05:19:50;;;;;;;3.75;1.20;;;-0.50;99.90;;;;;;5074944;28;20040;-72
2023/03/11 05:22:16;;;;;;;9.68;1.58;;;-0.50;99.90;;;;;;5093642;28;20430;-73
2023/03/11 05:24:41;;;;;;;9.37;1.40;;;-0.50;99.90;;;;;;5096652;28;20044;-73
2023/03/11 05:27:07;;;;;;;5.87;1.80;;;-0.60;99.90;;;;;;5097347;28;20050;-73
2023/03/11 05:29:33;;;;;;;7.20;1.60;;;-0.60;99.90;;;;;;5096757;28;20383;-72
2023/03/11 05:31:58;;;;;;;7.30;1.63;;;-0.60;99.90;;;;;;5095299;28;20471;-74
2023/03/11 05:34:24;;;;;;;7.57;2.20;;;-0.60;99.90;;;;;;5095848;28;20047;-72
2023/03/11 05:36:50;;;;;;;5.47;1.40;;;-0.60;99.90;;;;;;5096094;28;20043;-72
2023/03/11 05:39:16;;;;;;;3.43;1.50;;;-0.70;99.90;;;;;;5096334;28;20134;-72
2023/03/11 05:41:42;;;;;;;3.97;1.37;;;-0.80;99.90;;;;;;5095091;28;20147;-72
2023/03/11 05:44:07;;;;;;;6.77;1.63;;;-0.80;99.90;;;;;;5096501;28;20083;-72
2023/03/11 05:46:33;;;;;;;8.43;1.77;;;-0.70;99.90;;;;;;5096219;28;20044;-72
2023/03/11 05:48:59;;;;;;;9.67;2.00;;;-0.80;99.90;;;;;;5094717;28;20129;-72
2023/03/11 05:51:25;;;;;;;4.10;1.57;;;-0.70;99.90;;;;;;5096152;28;20048;-72
2023/03/11 05:53:51;;;;;;;5.73;1.83;;;-0.80;99.90;;;;;;5095985;28;20286;-72
2023/03/11 05:56:20;;;;;;;7.47;1.90;;;-0.80;99.90;;;;;;5096009;28;20048;-72
2023/03/11 05:58:45;;;;;;;7.03;2.00;;;-0.90;99.90;;;;;;5096007;28;20059;-72
2023/03/11 06:01:15;;;;;;;6.43;1.40;;;-0.90;99.90;;;;;;5077824;28;20044;-72
2023/03/11 06:03:41;;;;;;;9.02;1.90;;;-0.90;99.90;;;;;;5096499;28;20101;-72
2023/03/11 06:06:09;;;;;;;6.63;2.25;;;-1.00;99.90;;;;;;5096119;28;20048;-72
2023/03/11 06:08:36;;;;;;;8.77;1.98;;;-0.90;99.90;;;;;;5095851;28;20051;-72
2023/03/11 06:11:03;;;;;;;7.05;2.60;;;-1.00;99.90;;;;;;5096250;28;20039;-72
2023/03/11 06:13:29;;;;;;;8.98;3.13;;;-1.00;99.90;;;;;;5094739;28;20472;-72
2023/03/11 06:15:55;;;;;;;9.77;2.90;;;-0.90;99.90;;;;;;5096431;28;20146;-72
2023/03/11 06:18:21;;;;;;;10.07;2.67;;;-1.00;99.90;;;;;;5095559;28;20597;-72
2023/03/11 06:20:47;;;;;;;7.35;2.60;;;-0.90;99.90;;;;;;5095457;28;20040;-72
2023/03/11 06:23:13;;;;;;;12.53;3.40;;;-1.00;99.90;;;;;;5095445;28;20036;-71
2023/03/11 06:25:38;;;;;;;6.67;2.20;;;-0.90;99.90;;;;;;5095688;28;20044;-71
2023/03/11 06:28:04;;;;;;;8.17;2.43;;;-1.00;99.90;;;;;;5095427;28;20043;-71
2023/03/11 06:30:30;;;;;;;6.20;2.43;;;-0.90;99.90;;;;;;5095335;28;20048;-71
2023/03/11 06:32:56;;;;;;;7.07;2.00;;;-0.90;99.90;;;;;;5093831;28;20083;-72
2023/03/11 06:35:21;;;;;;;7.23;2.00;;;-0.90;99.90;;;;;;5095742;28;20048;-72
2023/03/11 06:37:47;;;;;;;5.47;1.60;;;-0.90;99.90;;;;;;5095179;28;20044;-71
2023/03/11 06:40:13;;;;;;;9.17;1.80;;;-0.90;99.90;;;;;;5095046;28;20496;-72
2023/03/11 06:42:39;;;;;;;12.07;1.97;;;-0.90;99.90;;;;;;5093396;28;20051;-72
2023/03/11 06:45:06;;;;;;;8.13;1.87;;;-0.90;99.90;;;;;;5093988;28;20047;-71
2023/03/11 06:47:31;;;;;;;4.35;1.73;;;-0.90;99.90;;;;;;5094924;28;20135;-72
2023/03/11 06:49:57;;;;;;;7.37;1.80;;;-0.90;99.90;;;;;;5094904;28;20091;-71
2023/03/11 06:52:23;;;;;;;6.13;1.70;;;-0.90;99.90;;;;;;5093608;28;20127;-72
2023/03/11 06:54:48;;;;;;;6.10;1.90;;;-0.90;99.90;;;;;;5093549;28;20055;-71
2023/03/11 06:57:15;;;;;;;8.13;1.70;;;-0.80;99.90;;;;;;5093565;28;20127;-72
2023/03/11 06:59:41;;;;;;;7.65;2.17;;;-0.80;99.90;;;;;;5094628;28;20066;-72
2023/03/11 07:02:12;;;;;;;6.90;1.80;;;-0.80;99.90;;;;;;5094923;28;20040;-73
2023/03/11 07:04:37;;;;;;;13.82;2.10;;;-0.80;99.90;;;;;;5094909;28;20051;-72
2023/03/11 07:07:03;;;;;;;7.50;1.80;;;-0.70;99.90;;;;;;5094526;28;20472;-72
2023/03/11 07:09:29;;;;;;;7.87;2.10;;;-0.70;99.90;;;;;;5093434;28;20055;-72
2023/03/11 07:11:54;;;;;;;8.27;2.13;;;-0.70;99.90;;;;;;5095255;28;20052;-73
2023/03/11 07:14:21;;;;;;;11.00;2.70;;;-0.70;99.90;;;;;;5094373;28;20464;-73
2023/03/11 07:16:46;;;;;;;10.68;3.40;;;-0.60;99.90;;;;;;5094137;28;20127;-73
2023/03/11 07:19:13;;;;;;;9.63;2.50;;;-0.60;99.90;;;;;;5094331;28;20136;-73
2023/03/11 07:21:39;;;;;;;10.98;2.92;;;-0.60;99.90;;;;;;5094316;28;20048;-72
2023/03/11 07:24:05;;;;;;;5.88;1.92;;;-0.50;99.90;;;;;;5094092;28;20058;-72
2023/03/11 07:26:33;;;;;;;5.75;1.55;;;-0.50;99.90;;;;;;5094293;28;20048;-72
2023/03/11 07:28:59;;;;;;;9.48;1.75;;;-0.40;99.90;;;;;;5094335;28;20055;-72
2023/03/11 07:31:28;;;;;;;7.00;2.50;;;-0.40;99.90;;;;;;5094697;28;20040;-72
2023/03/11 07:33:56;;;;;;;5.50;1.90;;;0.00;99.90;;;;;;5093486;28;20059;-72
2023/03/11 07:36:23;;;;;;;9.55;2.25;;;0.30;99.90;;;;;;5094032;28;20105;-73
2023/03/11 07:38:58;;;;;;;8.15;2.25;;;0.30;99.90;;;;;;5094058;28;20126;-72
2023/03/11 07:41:25;;;;;;;10.38;2.97;;;0.50;99.90;;;;;;5092843;28;20472;-73
2023/03/11 07:43:54;;;;;;;12.57;2.00;;;0.50;99.90;;;;;;5094007;28;20093;-72
2023/03/11 07:46:21;;;;;;;12.55;2.45;;;0.50;99.90;;;;;;5093356;28;20047;-72
2023/03/11 07:48:48;;;;;;;11.45;2.25;;;0.60;99.90;;;;;;5092549;28;20082;-72
2023/03/11 07:51:20;;;;;;;10.65;1.88;;;0.60;99.90;;;;;;5093889;28;20048;-73
2023/03/11 07:53:47;;;;;;;9.93;1.90;;;0.70;99.90;;;;;;5093878;28;20052;-72
2023/03/11 07:56:15;;;;;;;5.22;1.80;;;0.60;99.90;;;;;;5094353;28;20426;-75
2023/03/11 07:58:42;;;;;;;7.88;1.95;;;0.70;99.90;;;;;;5094369;28;20048;-71
2023/03/11 08:01:19;;;;;;;6.55;1.80;;;0.70;99.90;;;;;;5093665;28;20126;-72
2023/03/11 08:03:46;;;;;;;5.90;1.55;;;0.70;99.90;;;;;;5093636;28;20051;-72
2023/03/11 08:06:20;;;;;;;7.10;1.65;;;0.80;99.90;;;;;;5093768;28;20040;-72
2023/03/11 08:08:48;;;;;;;8.60;1.92;;;0.90;99.90;;;;;;5094337;28;20044;-71
2023/03/11 08:11:14;;;;;;;6.57;1.50;;;0.90;99.90;;;;;;5092924;28;20369;-72
2023/03/11 08:13:42;;;;;;;4.47;1.20;;;0.90;99.90;;;;;;5094136;28;20054;-72
2023/03/11 08:16:09;;;;;;;7.80;1.48;;;1.00;99.90;;;;;;5093581;28;20091;-71
2023/03/11 08:18:35;;;;;;;10.35;1.92;;;1.00;99.90;;;;;;5093527;28;20052;-72
2023/03/11 08:21:05;;;;;;;5.27;1.30;;;1.10;99.90;;;;;;5093400;28;20126;-72
2023/03/11 08:23:30;;;;;;;7.00;1.48;;;1.10;99.90;;;;;;5093400;28;20080;-72
2023/03/11 08:25:56;;;;;;;9.27;1.50;;;1.10;99.90;;;;;;5093444;28;20117;-72
2023/03/11 08:28:22;;;;;;;8.43;2.23;;;1.10;99.90;;;;;;5092480;28;20081;-72
2023/03/11 08:30:47;;;;;;;9.77;3.13;;;1.20;99.90;;;;;;5093375;28;20123;-72
2023/03/11 08:33:13;;;;;;;6.67;2.10;;;1.30;99.90;;;;;;5093414;28;20044;-70
2023/03/11 08:35:39;;;;;;;8.23;1.90;;;1.20;99.90;;;;;;5093080;28;20069;-72
2023/03/11 08:38:04;;;;;;;8.60;2.47;;;1.30;99.90;;;;;;5093369;28;20101;-72
2023/03/11 08:40:30;;;;;;;12.70;2.40;;;1.30;99.90;;;;;;5093075;28;20052;-72
2023/03/11 08:42:56;;;;;;;8.90;2.37;;;1.40;99.90;;;;;;5094135;28;20368;-73
2023/03/11 08:45:22;;;;;;;11.77;2.13;;;1.30;99.90;;;;;;5076305;28;20040;-73
2023/03/11 08:47:47;;;;;;;8.73;2.17;;;1.40;99.90;;;;;;5093260;28;20160;-72
2023/03/11 08:50:16;;;;;;;9.60;2.40;;;1.40;99.90;;;;;;5093685;28;20048;-73
2023/03/11 08:52:42;;;;;;;9.15;2.20;;;1.50;99.90;;;;;;5093128;28;20048;-73
2023/03/11 08:55:11;;;;;;;9.35;2.60;;;1.50;99.90;;;;;;5093231;28;20080;-73
2023/03/11 08:57:37;;;;;;;11.93;2.65;;;1.60;99.90;;;;;;5096510;28;20052;-72
2023/03/11 09:00:04;;;;;;;6.63;2.20;;;1.60;99.90;;;;;;5097060;28;20052;-72
2023/03/11 09:02:30;;;;;;;10.43;3.03;;;1.70;99.90;;;;;;5097794;28;20461;-73
2023/03/11 09:04:56;;;;;;;7.27;2.23;;;1.60;99.90;;;;;;5096576;28;20044;-72
2023/03/11 09:07:22;;;;;;;8.00;2.40;;;1.80;99.90;;;;;;5097003;28;20040;-71
2023/03/11 09:09:47;;;;;;;8.03;2.13;;;1.80;99.90;;;;;;5096919;28;20044;-72
2023/03/11 09:12:13;;;;;;;12.20;3.67;;;1.70;99.90;;;;;;5095939;28;20277;-72
2023/03/11 09:14:42;;;;;;;9.50;1.80;;;1.80;99.90;;;;;;5097587;28;20040;-72
2023/03/11 09:17:10;;;;;;;7.13;2.55;;;1.80;99.90;;;;;;5096778;28;20113;-72
2023/03/11 09:19:37;;;;;;;10.18;2.17;;;1.90;99.90;;;;;;5095851;28;20051;-72
2023/03/11 09:22:04;;;;;;;12.10;2.75;;;1.90;99.90;;;;;;5097467;28;20123;-73
2023/03/11 09:24:33;;;;;;;9.95;2.60;;;1.90;99.90;;;;;;5096410;28;20051;-74
2023/03/11 09:27:00;;;;;;;9.15;2.05;;;1.90;99.90;;;;;;5095668;28;20091;-73
2023/03/11 09:29:26;;;;;;;8.65;2.38;;;2.00;99.90;;;;;;5097358;28;20059;-73
2023/03/11 09:31:51;;;;;;;11.82;2.55;;;2.00;99.90;;;;;;5096578;28;20032;-72
2023/03/11 09:34:17;;;;;;;9.63;2.67;;;2.00;99.90;;;;;;5096544;28;20396;-72
2023/03/11 09:36:43;;;;;;;12.43;2.90;;;2.00;99.90;;;;;;5096341;28;20169;-72
2023/03/11 09:39:09;;;;;;;13.13;2.47;;;2.10;99.90;;;;;;5096361;28;20079;-71
2023/03/11 09:41:57;;;;;;;8.40;2.27;;;2.20;99.90;;;;;;5096448;28;20117;-72
2023/03/11 09:44:46;;;;;;;11.20;2.15;;;2.20;99.90;;;;;;5096283;28;20047;-73
2023/03/11 09:47:22;;;;;;;8.63;2.25;;;2.20;99.90;;;;;;5096167;28;20082;-74
2023/03/11 09:50:04;;;;;;;5.55;2.05;;;2.30;99.90;;;;;;5096039;28;20063;-72
2023/03/11 09:52:49;;;;;;;4.95;1.90;;;2.30;99.90;;;;;;5096590;28;20436;-72
2023/03/11 09:56:00;;;;;;;13.18;2.33;;;2.30;99.90;;;;;;5096717;28;20048;-72
2023/03/11 09:58:37;;;;;;;9.75;2.65;;;2.40;99.90;;;;;;5092342;28;20051;-76
2023/03/11 10:01:16;;;;;;;7.70;2.50;;;2.40;99.90;;;;;;5096486;28;20415;-73
2023/03/11 10:03:43;;;;;;;7.72;2.10;;;2.40;99.90;;;;;;5096712;28;20149;-76
2023/03/11 10:06:28;;;;;;;8.07;2.05;;;2.40;99.90;;;;;;5096314;28;20097;-72
2023/03/11 10:09:05;;;;;;;7.10;2.00;;;2.50;99.90;;;;;;5095081;28;20097;-72
2023/03/11 10:11:57;;;;;;;7.35;2.40;;;2.50;99.90;;;;;;5095115;28;20048;-73
2023/03/11 10:14:53;;;;;;;8.85;2.10;;;2.50;99.90;;;;;;5095715;28;20488;-72
2023/03/11 10:17:58;;;;;;;8.52;2.05;;;2.50;99.90;;;;;;5096527;28;20385;-72
2023/03/11 10:20:37;;;;;;;5.28;1.80;;;2.60;99.90;;;;;;5096077;28;20043;-72
2023/03/11 10:23:23;;;;;;;10.43;2.28;;;2.60;99.90;;;;;;5096159;28;20372;-73
2023/03/11 10:25:55;;;;;;;8.60;1.77;;;2.60;99.90;;;;;;5096058;28;20123;-74
2023/03/11 10:28:26;;;;;;;5.22;1.80;;;2.60;99.90;;;;;;5095516;28;20127;-73
2023/03/11 10:30:59;;;;;;;12.18;1.83;;;2.60;99.90;;;;;;5096269;28;20363;-75
2023/03/11 10:33:34;;;;;;;11.10;1.80;;;2.60;99.90;;;;;;5094679;28;20048;-74
2023/03/11 10:36:09;;;;;;;8.25;1.67;;;2.60;99.90;;;;;;5094135;28;20051;-73
2023/03/11 10:38:41;;;;;;;11.07;1.77;;;2.70;99.90;;;;;;5095330;28;20136;-75
2023/03/11 10:41:25;;;;;;;8.60;1.75;;;2.70;99.90;;;;;;5095222;28;20086;-73
2023/03/11 10:43:58;;;;;;;9.48;1.67;;;2.80;99.90;;;;;;5095207;28;20043;-73
2023/03/11 10:46:26;;;;;;;10.90;1.60;;;2.80;99.90;;;;;;5096038;28;20048;-81
2023/03/11 10:48:52;;;;;;;8.10;1.40;;;2.90;99.90;;;;;;5094377;28;20385;-75
2023/03/11 10:51:25;;;;;;;6.82;1.60;;;2.90;99.90;;;;;;5095886;28;20044;-75
2023/03/11 10:53:59;;;;;;;9.65;1.50;;;3.00;99.90;;;;;;5095228;28;20055;-76
2023/03/11 10:56:32;;;;;;;8.55;1.70;;;3.00;99.90;;;;;;5093647;28;20514;-76
2023/03/11 10:58:59;;;;;;;7.05;1.88;;;3.10;99.90;;;;;;5094731;28;20134;-74
2023/03/11 11:01:25;;;;;;;6.97;2.00;;;3.10;99.90;;;;;;5094546;28;20040;-73
2023/03/11 11:03:56;;;;;;;7.60;1.27;;;3.20;99.90;;;;;;5094747;28;20116;-72
2023/03/11 11:06:27;;;;;;;8.93;2.28;;;3.20;99.90;;;;;;5094775;28;20044;-74
2023/03/11 11:09:14;;;;;;;6.15;1.10;;;3.20;99.90;;;;;;5095290;28;20083;-74
2023/03/11 11:11:41;;;;;;;8.75;1.60;;;3.30;99.90;;;;;;5094642;28;20127;-75
2023/03/11 11:14:09;;;;;;;6.47;1.77;;;3.40;99.90;;;;;;5076691;28;20067;-74
2023/03/11 11:16:35;;;;;;;8.98;1.35;;;3.30;99.90;;;;;;5094580;28;20048;-74
2023/03/11 11:19:01;;;;;;;8.85;1.63;;;3.40;99.90;;;;;;5094348;28;20456;-74
2023/03/11 11:21:37;;;;;;;6.70;1.47;;;3.40;99.90;;;;;;5093856;28;20085;-74
2023/03/11 11:24:09;;;;;;;3.90;1.40;;;3.40;99.90;;;;;;5094401;28;20503;-74
2023/03/11 11:26:35;;;;;;;9.48;1.60;;;3.40;99.90;;;;;;5093895;28;20376;-74
2023/03/11 11:29:14;;;;;;;10.30;1.73;;;3.30;99.90;;;;;;5093547;28;20044;-74
2023/03/11 11:31:46;;;;;;;5.88;1.27;;;3.30;99.90;;;;;;5093086;28;20542;-72
2023/03/11 11:34:32;;;;;;;6.88;1.50;;;3.30;99.90;;;;;;5095042;28;20044;-72
2023/03/11 11:37:02;;;;;;;12.00;2.03;;;3.30;99.90;;;;;;5094769;28;20055;-72
2023/03/11 11:39:35;;;;;;;11.13;3.60;;;3.40;99.90;;;;;;5094485;28;20044;-72
2023/03/11 11:42:01;;;;;;;8.90;1.40;;;3.50;99.90;;;;;;5094861;28;20329;-72
2023/03/11 11:44:33;;;;;;;8.68;1.48;;;3.50;99.90;;;;;;5094116;28;20177;-74
2023/03/11 11:47:21;;;;;;;9.13;1.75;;;3.60;99.90;;;;;;5094872;28;20044;-73
2023/03/11 11:49:56;;;;;;;7.00;1.52;;;3.70;99.90;;;;;;5093833;28;20102;-73
2023/03/11 11:52:45;;;;;;;5.07;1.30;;;3.70;99.90;;;;;;5093495;28;20587;-75
2023/03/11 11:55:22;;;;;;;5.72;1.45;;;3.80;99.90;;;;;;5094487;28;20668;-72
2023/03/11 11:57:50;;;;;;;6.25;1.50;;;3.80;99.90;;;;;;5093876;28;20052;-72
2023/03/11 12:00:44;;;;;;;7.13;1.48;;;3.90;99.90;;;;;;5093739;28;20048;-72
2023/03/11 12:03:42;;;;;;;5.00;1.50;;;3.80;99.90;;;;;;5092122;28;20048;-71
2023/03/11 12:06:49;;;;;;;10.60;1.77;;;3.90;99.90;;;;;;5094339;28;20048;-72
2023/03/11 12:09:38;;;;;;;6.82;1.50;;;3.80;99.90;;;;;;5092679;28;20476;-72
2023/03/11 12:12:57;;;;;;;8.88;1.75;;;3.70;99.90;;;;;;5093856;28;20066;-71
2023/03/11 12:15:28;;;;;;;4.95;1.33;;;3.70;99.90;;;;;;5035497;28;20445;-73
2023/03/11 12:17:59;;;;;;;8.10;1.73;;;3.70;99.90;;;;;;5093629;28;20415;-75
2023/03/11 12:20:29;;;;;;;7.85;1.63;;;3.70;99.90;;;;;;5093555;28;20044;-75
2023/03/11 12:23:16;;;;;;;9.70;1.58;;;3.70;99.90;;;;;;5093628;28;20206;-80
2023/03/11 12:26:02;;;;;;;7.95;1.25;;;3.80;99.90;;;;;;5092382;28;20055;-71
2023/03/11 12:28:43;;;;;;;12.13;1.57;;;3.80;99.90;;;;;;5094210;28;20113;-72
2023/03/11 12:31:11;;;;;;;7.10;1.77;;;3.80;99.90;;;;;;5095009;28;20293;-73
2023/03/11 12:33:49;;;;;;;5.95;1.75;;;3.90;99.90;;;;;;5097663;28;20484;-72
2023/03/11 12:36:23;;;;;;;5.25;1.17;;;3.90;99.90;;;;;;5098256;28;20048;-72
2023/03/11 12:38:50;;;;;;;5.00;1.25;;;3.90;99.90;;;;;;5097230;28;20123;-74
2023/03/11 12:41:30;;;;;;;7.80;1.55;;;3.90;99.90;;;;;;5096521;28;20052;-72
2023/03/11 12:43:59;;;;;;;6.18;1.50;;;4.00;99.90;;;;;;5096643;28;20056;-73
2023/03/11 12:46:56;;;;;;;5.78;1.38;;;4.00;99.90;;;;;;5097281;28;20044;-76
2023/03/11 12:49:24;;;;;;;7.28;1.30;;;3.90;99.90;;;;;;5096160;28;20158;-81
2023/03/11 12:52:11;;;;;;;6.35;1.13;;;4.00;99.90;;;;;;5097296;28;20155;-75
2023/03/11 12:54:48;;;;;;;8.63;1.33;;;3.90;99.90;;;;;;5097226;28;20051;-74
2023/03/11 12:57:17;;;;;;;4.80;1.10;;;3.90;99.90;;;;;;5079161;28;20055;-74
2023/03/11 13:00:10;;;;;;;8.88;1.58;;;3.90;99.90;;;;;;5097195;28;20553;-74
2023/03/11 13:03:09;;;;;;;6.38;1.15;;;3.80;99.90;;;;;;5097472;28;20052;-75
2023/03/11 13:05:47;;;;;;;4.50;1.35;;;3.80;99.90;;;;;;5097685;28;20365;-75